createdAt,value
2018-11-10T00:00:17.645Z,72.40
2018-11-10T00:02:47.362Z,72.40
2018-11-10T00:05:16.663Z,72.50
2018-11-10T00:07:45.891Z,72.40
2018-11-10T00:10:14.867Z,72.50
2018-11-10T00:12:43.789Z,72.50
2018-11-10T00:15:13.666Z,72.60
2018-11-10T00:17:42.478Z,72.50
2018-11-10T00:20:11.687Z,72.60
2018-11-10T00:22:41.354Z,72.50
2018-11-10T00:25:11.850Z,72.50
2018-11-10T00:27:41.388Z,72.40
2018-11-10T00:30:12.376Z,73.10
2018-11-10T00:32:42.143Z,72.40
2018-11-10T00:35:10.988Z,71.60
2018-11-10T00:37:39.841Z,72.30
2018-11-10T00:40:10.975Z,72.40
2018-11-10T00:42:39.796Z,72.40
2018-11-10T00:45:09.008Z,72.40
2018-11-10T00:47:38.174Z,72.40
2018-11-10T00:50:09.094Z,72.20
2018-11-10T00:52:38.389Z,72.40
2018-11-10T00:55:08.570Z,72.40
2018-11-10T00:57:37.401Z,72.50
2018-11-10T01:00:10.174Z,72.40
2018-11-10T01:02:38.966Z,72.50
2018-11-10T01:05:07.864Z,72.50
2018-11-10T01:07:36.683Z,72.70
2018-11-10T01:10:06.615Z,72.70
2018-11-10T01:12:35.454Z,72.70
2018-11-10T01:15:05.006Z,72.70
2018-11-10T01:17:33.828Z,72.80
2018-11-10T01:20:02.705Z,72.80
2018-11-10T01:22:31.548Z,72.70
2018-11-10T01:25:00.350Z,72.70
2018-11-10T01:27:29.194Z,72.70
2018-11-10T01:29:58.011Z,72.70
2018-11-10T01:32:26.823Z,72.70
2018-11-10T01:34:56.114Z,72.80
2018-11-10T01:37:25.083Z,72.90
2018-11-10T01:39:54.067Z,72.90
2018-11-10T01:42:22.879Z,73.20
2018-11-10T01:44:51.674Z,73.00
2018-11-10T01:47:20.594Z,73.00
2018-11-10T01:49:49.662Z,73.10
2018-11-10T01:52:18.472Z,73.10
2018-11-10T01:54:47.314Z,73.30
2018-11-10T01:57:16.170Z,73.10
2018-11-10T01:59:45.129Z,73.20
2018-11-10T02:02:14.022Z,73.10
2018-11-10T02:04:42.842Z,73.20
2018-11-10T02:07:11.693Z,73.30
2018-11-10T02:09:40.557Z,73.30
2018-11-10T02:12:09.380Z,73.30
2018-11-10T02:14:44.902Z,73.40
2018-11-10T02:17:13.704Z,73.50
2018-11-10T02:19:42.614Z,73.50
2018-11-10T02:22:11.854Z,73.70
2018-11-10T02:24:40.674Z,73.60
2018-11-10T02:27:14.961Z,73.60
2018-11-10T02:29:43.773Z,73.70
2018-11-10T02:32:12.801Z,73.70
2018-11-10T02:34:41.774Z,74.50
2018-11-10T02:37:11.173Z,73.70
2018-11-10T02:39:39.985Z,73.80
2018-11-10T02:42:08.936Z,73.90
2018-11-10T02:44:37.734Z,73.90
2018-11-10T02:47:06.535Z,73.90
2018-11-10T02:49:35.370Z,73.20
2018-11-10T02:52:04.182Z,73.90
2018-11-10T02:54:33.062Z,73.90
2018-11-10T02:57:01.885Z,73.90
2018-11-10T02:59:30.741Z,73.90
2018-11-10T03:01:59.609Z,74.80
2018-11-10T03:04:35.226Z,73.90
2018-11-10T03:07:04.034Z,73.90
2018-11-10T03:09:32.854Z,73.90
2018-11-10T03:12:01.708Z,73.90
2018-11-10T03:14:30.535Z,73.90
2018-11-10T03:16:59.350Z,73.80
2018-11-10T03:19:28.310Z,73.90
2018-11-10T03:21:57.151Z,73.80
2018-11-10T03:24:25.953Z,73.80
2018-11-10T03:26:55.034Z,73.90
2018-11-10T03:29:23.847Z,73.80
2018-11-10T03:31:52.677Z,73.80
2018-11-10T03:34:21.506Z,73.80
2018-11-10T03:36:50.322Z,73.80
2018-11-10T03:39:19.503Z,73.80
2018-11-10T03:41:48.349Z,73.90
2018-11-10T03:44:17.160Z,73.70
2018-11-10T03:46:46.011Z,73.70
2018-11-10T03:49:14.954Z,74.00
2018-11-10T03:51:43.745Z,73.50
2018-11-10T03:54:12.534Z,73.80
2018-11-10T03:56:41.365Z,73.60
2018-11-10T03:59:10.195Z,73.60
2018-11-10T04:01:39.095Z,74.20
2018-11-10T04:04:07.985Z,73.60
2018-11-10T04:06:36.814Z,73.60
2018-11-10T04:09:06.929Z,73.60
2018-11-10T04:11:36.301Z,73.40
2018-11-10T04:14:05.482Z,73.40
2018-11-10T04:16:34.287Z,73.40
2018-11-10T04:19:03.104Z,73.40
2018-11-10T04:21:31.935Z,73.30
2018-11-10T04:24:00.744Z,73.20
2018-11-10T04:26:29.570Z,73.20
2018-11-10T04:28:58.395Z,73.20
2018-11-10T04:31:27.254Z,73.20
2018-11-10T04:33:56.182Z,73.20
2018-11-10T04:36:25.037Z,73.20
2018-11-10T04:38:53.862Z,73.20
2018-11-10T04:41:23.116Z,73.20
2018-11-10T04:43:51.926Z,73.20
2018-11-10T04:46:20.742Z,73.20
2018-11-10T04:48:49.559Z,73.20
2018-11-10T04:51:18.363Z,73.20
2018-11-10T04:53:47.218Z,73.60
2018-11-10T04:56:16.532Z,73.20
2018-11-10T04:58:45.350Z,73.20
2018-11-10T05:01:14.186Z,73.20
2018-11-10T05:03:42.990Z,73.20
2018-11-10T05:06:11.795Z,73.20
2018-11-10T05:08:40.597Z,73.30
2018-11-10T05:11:09.418Z,73.30
2018-11-10T05:13:38.239Z,73.30
2018-11-10T05:16:07.047Z,73.30
2018-11-10T05:18:35.968Z,73.30
2018-11-10T05:21:04.787Z,73.30
2018-11-10T05:23:33.598Z,73.30
2018-11-10T05:26:02.517Z,73.30
2018-11-10T05:28:31.378Z,73.20
2018-11-10T05:31:00.225Z,73.20
2018-11-10T05:33:28.998Z,73.20
2018-11-10T05:35:57.806Z,73.20
2018-11-10T05:38:26.608Z,73.20
2018-11-10T05:40:55.642Z,73.20
2018-11-10T05:43:24.908Z,73.20
2018-11-10T05:45:53.812Z,73.20
2018-11-10T05:48:22.740Z,73.10
2018-11-10T05:50:51.539Z,73.10
2018-11-10T05:53:20.338Z,73.10
2018-11-10T05:55:49.178Z,73.10
2018-11-10T05:58:17.983Z,73.20
2018-11-10T06:00:46.797Z,73.10
2018-11-10T06:03:15.944Z,73.00
2018-11-10T06:05:44.728Z,73.00
2018-11-10T06:08:13.535Z,72.90
2018-11-10T06:10:42.375Z,73.00
2018-11-10T06:13:11.191Z,72.80
2018-11-10T06:15:40.026Z,72.90
2018-11-10T06:18:08.863Z,73.00
2018-11-10T06:20:37.709Z,73.00
2018-11-10T06:23:06.497Z,72.80
2018-11-10T06:25:35.581Z,73.00
2018-11-10T06:28:04.567Z,73.00
2018-11-10T06:30:33.405Z,72.90
2018-11-10T06:33:02.319Z,73.00
2018-11-10T06:35:31.134Z,72.90
2018-11-10T06:37:59.993Z,72.80
2018-11-10T06:40:28.773Z,72.80
2018-11-10T06:42:57.570Z,72.80
2018-11-10T06:45:26.959Z,72.70
2018-11-10T06:47:56.015Z,72.70
2018-11-10T06:50:24.818Z,72.60
2018-11-10T06:52:53.662Z,73.40
2018-11-10T06:55:22.466Z,72.60
2018-11-10T06:57:51.267Z,72.70
2018-11-10T07:00:20.085Z,72.70
2018-11-10T07:02:49.485Z,72.70
2018-11-10T07:05:18.345Z,72.70
2018-11-10T07:07:47.527Z,72.70
2018-11-10T07:10:16.543Z,72.80
2018-11-10T07:12:45.355Z,72.80
2018-11-10T07:15:14.170Z,72.80
2018-11-10T07:17:43.027Z,72.70
2018-11-10T07:20:11.799Z,72.70
2018-11-10T07:22:40.625Z,72.70
2018-11-10T07:25:09.888Z,72.60
2018-11-10T07:27:38.659Z,72.60
2018-11-10T07:30:11.461Z,72.50
2018-11-10T07:32:40.658Z,72.60
2018-11-10T07:35:10.476Z,72.40
2018-11-10T07:37:39.338Z,72.30
2018-11-10T07:40:11.079Z,72.30
2018-11-10T07:42:39.865Z,72.40
2018-11-10T07:45:10.577Z,72.20
2018-11-10T07:47:39.801Z,72.20
2018-11-10T07:50:09.564Z,72.20
2018-11-10T07:52:39.124Z,72.20
2018-11-10T07:55:09.994Z,72.10
2018-11-10T07:57:38.843Z,72.00
2018-11-10T08:00:12.177Z,72.00
2018-11-10T08:02:41.282Z,71.90
2018-11-10T08:05:10.788Z,71.90
2018-11-10T08:07:40.622Z,71.80
2018-11-10T08:10:09.995Z,71.60
2018-11-10T08:12:38.807Z,71.60
2018-11-10T08:15:12.583Z,71.50
2018-11-10T08:17:41.614Z,71.50
2018-11-10T08:20:10.892Z,71.30
2018-11-10T08:22:39.805Z,71.10
2018-11-10T08:25:11.217Z,71.70
2018-11-10T08:27:40.255Z,71.20
2018-11-10T08:30:11.086Z,71.10
2018-11-10T08:32:40.201Z,71.00
2018-11-10T08:35:10.445Z,71.00
2018-11-10T08:37:39.272Z,71.00
2018-11-10T08:40:15.335Z,71.00
2018-11-10T08:42:44.217Z,71.00
2018-11-10T08:45:14.038Z,70.80
2018-11-10T08:47:44.155Z,70.70
2018-11-10T08:50:14.175Z,70.70
2018-11-10T08:52:43.414Z,70.40
2018-11-10T08:55:13.079Z,70.40
2018-11-10T08:57:42.356Z,70.40
2018-11-10T09:00:11.911Z,70.20
2018-11-10T09:02:40.754Z,70.20
2018-11-10T09:05:11.199Z,70.20
2018-11-10T09:07:40.290Z,70.00
2018-11-10T09:10:10.996Z,70.00
2018-11-10T09:12:39.816Z,70.00
2018-11-10T09:15:11.465Z,69.90
2018-11-10T09:17:40.615Z,69.80
2018-11-10T09:20:11.718Z,69.60
2018-11-10T09:22:40.562Z,69.50
2018-11-10T09:25:11.375Z,69.50
2018-11-10T09:27:40.286Z,69.40
2018-11-10T09:30:10.917Z,69.30
2018-11-10T09:32:40.578Z,69.20
2018-11-10T09:35:10.701Z,69.10
2018-11-10T09:37:39.499Z,69.10
2018-11-10T09:40:11.962Z,69.10
2018-11-10T09:42:41.162Z,69.00
2018-11-10T09:45:12.128Z,69.00
2018-11-10T09:47:41.300Z,68.90
2018-11-10T09:50:15.818Z,68.90
2018-11-10T09:52:45.073Z,68.80
2018-11-10T09:55:14.723Z,68.70
2018-11-10T09:57:43.590Z,68.50
2018-11-10T10:00:15.290Z,68.40
2018-11-10T10:02:44.634Z,68.40
2018-11-10T10:05:13.486Z,68.40
2018-11-10T10:07:43.389Z,68.30
2018-11-10T10:10:17.166Z,68.20
2018-11-10T10:12:46.130Z,68.30
2018-11-10T10:15:16.190Z,68.00
2018-11-10T10:17:45.502Z,67.90
2018-11-10T10:20:18.509Z,67.80
2018-11-10T10:22:48.084Z,67.70
2018-11-10T10:25:17.511Z,67.60
2018-11-10T10:27:47.747Z,67.50
2018-11-10T10:30:18.579Z,67.40
2018-11-10T10:32:48.163Z,67.40
2018-11-10T10:35:17.140Z,67.30
2018-11-10T10:37:46.859Z,67.20
2018-11-10T10:40:16.289Z,67.20
2018-11-10T10:42:45.665Z,66.50
2018-11-10T10:45:16.109Z,67.10
2018-11-10T10:47:45.323Z,67.00
2018-11-10T10:50:16.684Z,67.10
2018-11-10T10:52:45.521Z,67.10
2018-11-10T10:55:15.373Z,67.00
2018-11-10T10:57:45.269Z,67.10
2018-11-10T11:00:19.617Z,67.10
2018-11-10T11:02:54.008Z,67.20
2018-11-10T11:05:28.335Z,67.10
2018-11-10T11:07:57.149Z,67.20
2018-11-10T11:10:25.971Z,67.30
2018-11-10T11:12:54.822Z,67.20
2018-11-10T11:15:26.984Z,67.20
2018-11-10T11:17:55.735Z,67.30
2018-11-10T11:20:24.538Z,67.40
2018-11-10T11:22:53.375Z,67.20
2018-11-10T11:25:22.322Z,67.80
2018-11-10T11:27:51.132Z,67.10
2018-11-10T11:30:19.949Z,66.90
2018-11-10T11:32:48.780Z,66.90
2018-11-10T11:35:17.696Z,66.80
2018-11-10T11:37:46.458Z,66.70
2018-11-10T11:40:15.460Z,66.60
2018-11-10T11:42:44.577Z,66.60
2018-11-10T11:45:13.866Z,67.10
2018-11-10T11:47:43.359Z,66.30
2018-11-10T11:50:13.372Z,66.20
2018-11-10T11:52:43.322Z,66.10
2018-11-10T11:55:12.807Z,66.00
2018-11-10T11:57:41.852Z,65.80
2018-11-10T12:00:13.778Z,65.80
2018-11-10T12:02:43.149Z,65.60
2018-11-10T12:05:13.482Z,65.60
2018-11-10T12:07:45.442Z,65.60
2018-11-10T12:10:15.278Z,66.30
2018-11-10T12:12:44.109Z,65.40
2018-11-10T12:15:14.190Z,65.30
2018-11-10T12:17:42.979Z,65.10
2018-11-10T12:20:13.094Z,65.10
2018-11-10T12:22:42.267Z,65.10
2018-11-10T12:25:12.089Z,64.90
2018-11-10T12:27:41.989Z,64.80
2018-11-10T12:30:11.200Z,64.90
2018-11-10T12:32:40.498Z,64.80
2018-11-10T12:35:10.791Z,64.80
2018-11-10T12:37:39.714Z,64.80
2018-11-10T12:40:10.806Z,64.80
2018-11-10T12:42:40.193Z,64.70
2018-11-10T12:45:10.786Z,64.60
2018-11-10T12:47:40.269Z,64.60
2018-11-10T12:50:11.208Z,64.30
2018-11-10T12:52:40.848Z,64.40
2018-11-10T12:55:11.541Z,64.20
2018-11-10T12:57:41.422Z,64.30
2018-11-10T13:00:11.717Z,64.30
2018-11-10T13:02:40.542Z,64.00
2018-11-10T13:05:10.329Z,64.80
2018-11-10T13:07:39.511Z,64.10
2018-11-10T13:10:09.536Z,64.10
2018-11-10T13:12:38.554Z,63.90
2018-11-10T13:15:08.874Z,64.50
2018-11-10T13:17:38.170Z,64.00
2018-11-10T13:20:10.816Z,64.60
2018-11-10T13:22:39.642Z,63.30
2018-11-10T13:25:10.399Z,64.00
2018-11-10T13:27:39.394Z,63.70
2018-11-10T13:30:11.073Z,63.80
2018-11-10T13:32:39.945Z,63.80
2018-11-10T13:35:09.916Z,63.80
2018-11-10T13:37:41.818Z,63.80
2018-11-10T13:40:10.963Z,63.80
2018-11-10T13:42:39.808Z,63.80
2018-11-10T13:45:11.103Z,63.80
2018-11-10T13:47:40.030Z,64.00
2018-11-10T13:50:11.670Z,64.00
2018-11-10T13:52:43.021Z,64.20
2018-11-10T13:55:14.053Z,64.20
2018-11-10T13:57:43.754Z,64.20
2018-11-10T14:00:15.930Z,64.20
2018-11-10T14:02:49.067Z,64.30
2018-11-10T14:05:19.886Z,64.30
2018-11-10T14:07:50.095Z,64.20
2018-11-10T14:10:19.758Z,64.30
2018-11-10T14:12:50.306Z,64.20
2018-11-10T14:15:19.603Z,64.30
2018-11-10T14:17:49.328Z,64.20
2018-11-10T14:20:19.606Z,64.30
2018-11-10T14:22:48.472Z,64.20
2018-11-10T14:25:17.837Z,64.20
2018-11-10T14:27:46.943Z,64.30
2018-11-10T14:30:17.146Z,64.30
2018-11-10T14:32:46.397Z,64.30
2018-11-10T14:35:15.563Z,65.00
2018-11-10T14:37:44.366Z,64.40
2018-11-10T14:40:14.666Z,64.40
2018-11-10T14:42:44.084Z,64.40
2018-11-10T14:45:15.150Z,64.90
2018-11-10T14:47:44.401Z,64.30
2018-11-10T14:50:14.136Z,64.40
2018-11-10T14:52:43.167Z,65.20
2018-11-10T14:55:13.025Z,64.50
2018-11-10T14:57:42.131Z,64.50
2018-11-10T15:00:14.798Z,64.60
2018-11-10T15:02:43.723Z,64.80
2018-11-10T15:05:13.290Z,64.70
2018-11-10T15:07:48.843Z,64.70
2018-11-10T15:10:18.374Z,64.80
2018-11-10T15:12:47.442Z,64.80
2018-11-10T15:15:17.277Z,64.90
2018-11-10T15:17:46.384Z,65.00
2018-11-10T15:20:16.372Z,65.00
2018-11-10T15:22:51.918Z,65.40
2018-11-10T15:25:21.605Z,65.20
2018-11-10T15:27:50.339Z,65.30
2018-11-10T15:30:20.447Z,65.60
2018-11-10T15:32:49.738Z,65.40
2018-11-10T15:35:20.015Z,65.50
2018-11-10T15:37:50.016Z,65.60
2018-11-10T15:40:19.384Z,65.80
2018-11-10T15:42:48.298Z,65.90
2018-11-10T15:45:18.607Z,66.00
2018-11-10T15:47:48.317Z,66.10
2018-11-10T15:50:18.134Z,66.20
2018-11-10T15:52:47.008Z,66.20
2018-11-10T15:55:16.523Z,66.20
2018-11-10T15:57:45.361Z,66.30
2018-11-10T16:00:15.766Z,66.30
2018-11-10T16:02:44.574Z,66.50
2018-11-10T16:05:14.165Z,66.50
2018-11-10T16:07:43.249Z,66.60
2018-11-10T16:10:12.372Z,66.60
2018-11-10T16:12:41.189Z,66.70
2018-11-10T16:15:13.468Z,66.80
2018-11-10T16:17:42.569Z,66.90
2018-11-10T16:20:14.134Z,67.10
2018-11-10T16:22:44.018Z,67.10
2018-11-10T16:25:12.852Z,67.20
2018-11-10T16:27:41.943Z,67.20
2018-11-10T16:30:12.969Z,67.40
2018-11-10T16:32:41.777Z,67.40
2018-11-10T16:35:10.691Z,67.40
2018-11-10T16:37:39.630Z,67.50
2018-11-10T16:40:12.154Z,67.70
2018-11-10T16:42:41.720Z,67.80
2018-11-10T16:45:11.810Z,67.80
2018-11-10T16:47:40.899Z,67.90
2018-11-10T16:50:10.239Z,68.00
2018-11-10T16:52:39.430Z,68.10
2018-11-10T16:55:09.020Z,68.70
2018-11-10T16:57:38.762Z,68.10
2018-11-10T17:00:11.056Z,68.30
2018-11-10T17:02:39.851Z,68.40
2018-11-10T17:05:08.910Z,68.40
2018-11-10T17:07:38.235Z,68.50
2018-11-10T17:10:11.711Z,68.60
2018-11-10T17:12:40.964Z,68.80
2018-11-10T17:15:10.219Z,68.70
2018-11-10T17:17:39.409Z,68.80
2018-11-10T17:20:11.949Z,68.80
2018-11-10T17:22:41.050Z,68.90
2018-11-10T17:25:10.485Z,68.90
2018-11-10T17:27:40.738Z,68.90
2018-11-10T17:30:12.747Z,68.90
2018-11-10T17:32:41.756Z,69.00
2018-11-10T17:35:11.262Z,69.00
2018-11-10T17:37:40.167Z,69.10
2018-11-10T17:40:10.103Z,69.20
2018-11-10T17:42:38.939Z,69.20
2018-11-10T17:45:11.458Z,69.30
2018-11-10T17:47:40.334Z,69.40
2018-11-10T17:50:10.257Z,69.30
2018-11-10T17:52:39.483Z,69.40
2018-11-10T17:55:10.263Z,69.40
2018-11-10T17:57:40.659Z,69.50
2018-11-10T18:00:09.475Z,69.50
2018-11-10T18:02:38.280Z,69.70
2018-11-10T18:05:11.795Z,69.60
2018-11-10T18:07:40.629Z,69.70
2018-11-10T18:10:11.722Z,69.80
2018-11-10T18:12:40.820Z,69.80
2018-11-10T18:15:10.423Z,70.20
2018-11-10T18:17:39.778Z,70.10
2018-11-10T18:20:10.651Z,70.10
2018-11-10T18:22:39.467Z,70.10
2018-11-10T18:25:08.909Z,70.80
2018-11-10T18:27:38.150Z,70.20
2018-11-10T18:30:11.118Z,70.30
2018-11-10T18:32:40.013Z,70.30
2018-11-10T18:35:09.625Z,70.30
2018-11-10T18:37:38.438Z,70.40
2018-11-10T18:40:08.689Z,70.40
2018-11-10T18:42:37.482Z,70.50
2018-11-10T18:45:09.756Z,71.30
2018-11-10T18:47:39.008Z,70.70
2018-11-10T18:50:11.591Z,70.70
2018-11-10T18:52:40.407Z,70.70
2018-11-10T18:55:09.232Z,70.90
2018-11-10T18:57:38.287Z,70.80
2018-11-10T19:00:11.971Z,70.80
2018-11-10T19:02:41.362Z,70.90
2018-11-10T19:05:11.592Z,71.00
2018-11-10T19:07:40.486Z,71.00
2018-11-10T19:10:11.266Z,71.20
2018-11-10T19:12:40.313Z,71.30
2018-11-10T19:15:13.727Z,71.30
2018-11-10T19:17:42.550Z,71.40
2018-11-10T19:20:12.013Z,71.40
2018-11-10T19:22:41.614Z,72.00
2018-11-10T19:25:11.727Z,71.40
2018-11-10T19:27:40.531Z,71.50
2018-11-10T19:30:13.038Z,71.30
2018-11-10T19:32:41.990Z,71.30
2018-11-10T19:35:11.495Z,71.20
2018-11-10T19:37:40.297Z,71.20
2018-11-10T19:40:09.898Z,71.10
2018-11-10T19:42:39.103Z,71.00
2018-11-10T19:45:09.840Z,70.90
2018-11-10T19:47:39.410Z,70.90
2018-11-10T19:50:09.215Z,70.90
2018-11-10T19:52:37.963Z,70.90
2018-11-10T19:55:11.648Z,70.80
2018-11-10T19:57:40.476Z,70.90
2018-11-10T20:00:16.587Z,70.80
2018-11-10T20:02:45.882Z,70.80
2018-11-10T20:05:14.758Z,70.80
2018-11-10T20:07:43.622Z,70.90
2018-11-10T20:10:12.874Z,70.90
2018-11-10T20:12:42.211Z,71.00
2018-11-10T20:15:12.589Z,71.00
2018-11-10T20:17:41.898Z,71.00
2018-11-10T20:20:11.928Z,71.00
2018-11-10T20:22:41.301Z,71.10
2018-11-10T20:25:12.146Z,71.10
2018-11-10T20:27:41.249Z,71.00
2018-11-10T20:30:14.035Z,71.60
2018-11-10T20:32:42.926Z,71.10
2018-11-10T20:35:12.523Z,71.10
2018-11-10T20:37:42.357Z,71.20
2018-11-10T20:40:12.255Z,71.10
2018-11-10T20:42:41.347Z,71.20
2018-11-10T20:45:13.827Z,71.20
2018-11-10T20:47:42.913Z,71.20
2018-11-10T20:50:12.341Z,71.90
2018-11-10T20:52:41.178Z,71.10
2018-11-10T20:55:10.914Z,71.10
2018-11-10T20:57:39.727Z,71.20
2018-11-10T21:00:12.875Z,71.20
2018-11-10T21:02:42.801Z,71.30
2018-11-10T21:05:12.424Z,71.40
2018-11-10T21:07:41.722Z,71.40
2018-11-10T21:10:13.990Z,71.10
2018-11-10T21:12:43.547Z,71.50
2018-11-10T21:15:12.845Z,71.50
2018-11-10T21:17:41.666Z,71.50
2018-11-10T21:20:11.473Z,71.60
2018-11-10T21:22:40.278Z,71.60
2018-11-10T21:25:11.071Z,71.60
2018-11-10T21:27:40.738Z,71.60
2018-11-10T21:30:11.449Z,71.60
2018-11-10T21:32:40.175Z,71.60
2018-11-10T21:35:09.419Z,71.60
2018-11-10T21:37:38.617Z,71.70
2018-11-10T21:40:13.515Z,71.70
2018-11-10T21:42:42.578Z,71.80
2018-11-10T21:45:12.501Z,71.80
2018-11-10T21:47:41.794Z,71.80
2018-11-10T21:50:12.584Z,71.80
2018-11-10T21:52:42.153Z,71.90
2018-11-10T21:55:12.579Z,71.70
2018-11-10T21:57:42.079Z,71.80
2018-11-10T22:00:13.054Z,71.80
2018-11-10T22:02:42.950Z,71.70
2018-11-10T22:05:11.922Z,71.80
2018-11-10T22:07:41.150Z,71.80
2018-11-10T22:10:12.510Z,71.80
2018-11-10T22:12:41.659Z,71.60
2018-11-10T22:15:12.851Z,71.60
2018-11-10T22:17:42.614Z,71.50
2018-11-10T22:20:13.054Z,71.50
2018-11-10T22:22:41.955Z,71.40
2018-11-10T22:25:11.547Z,71.40
2018-11-10T22:27:42.082Z,71.20
2018-11-10T22:30:15.092Z,71.30
2018-11-10T22:32:44.583Z,71.20
2018-11-10T22:35:13.423Z,71.20
2018-11-10T22:37:42.226Z,71.20
2018-11-10T22:40:12.986Z,71.10
2018-11-10T22:42:42.182Z,71.10
2018-11-10T22:45:13.736Z,71.10
2018-11-10T22:47:43.161Z,71.10
2018-11-10T22:50:14.587Z,71.10
2018-11-10T22:52:43.692Z,71.10
2018-11-10T22:55:12.518Z,71.10
2018-11-10T22:57:41.565Z,71.10
2018-11-10T23:00:21.222Z,71.10
2018-11-10T23:02:51.754Z,71.20
2018-11-10T23:05:21.149Z,71.10
2018-11-10T23:07:50.194Z,71.10
2018-11-10T23:10:19.339Z,71.20
2018-11-10T23:12:49.152Z,71.20
2018-11-10T23:15:18.026Z,71.20
2018-11-10T23:17:47.506Z,71.30
2018-11-10T23:20:17.738Z,71.40
2018-11-10T23:22:46.614Z,71.40
2018-11-10T23:25:16.782Z,71.40
2018-11-10T23:27:45.674Z,71.40
2018-11-10T23:30:17.743Z,71.40
2018-11-10T23:32:46.552Z,72.20
2018-11-10T23:35:15.362Z,71.50
2018-11-10T23:37:44.218Z,71.40
2018-11-10T23:40:14.330Z,71.50
2018-11-10T23:42:43.514Z,71.50
2018-11-10T23:45:13.131Z,71.60
2018-11-10T23:47:41.959Z,71.60
2018-11-10T23:50:12.690Z,71.70
2018-11-10T23:52:41.935Z,71.80
2018-11-10T23:55:11.786Z,71.80
2018-11-10T23:57:40.615Z,71.80
